• Join FlightAware (Why Join?)
  • Login
  • US Flag 
04:17AM EDT


 

Airport Tracker/Info


-or-


 

Live Flight TrackerFlight Track Log ✈ N1820F ✈ 07-Oct-2013 ✈ KRDG - KPOU

Flight Track Log - Related Links

Times and Time Zones

All times are in EDT time to prevent confusion due to time zone crossing. See the N1820F flight status page for this flight to view local times or setup timezone preferences in your user account.

Time Position Orientation Groundspeed Altitude Reporting Facility
EDT Latitude Longitude Course Direction KTS MPH feet Rate Location/Type
09:51AM 40.5120 -75.7628 49° Northeast  Level FlightAware Approximate
09:52AM 40.5342 -75.7290 49° Northeast  Level FlightAware Approximate
09:53AM 40.5564 -75.6952 49° Northeast  Level FlightAware Approximate
09:54AM 40.5777 -75.6603 43° Northeast  Level Estimated
09:55AM 40.6017 -75.6287 45° Northeast  Level FlightAware Approximate
09:56AM 40.6258 -75.5971 45° Northeast  Level FlightAware Approximate
09:57AM 40.6498 -75.5654 45° Northeast  Level FlightAware Approximate
09:58AM 40.6738 -75.5337 45° Northeast  Level FlightAware Approximate
09:59AM 40.6978 -75.5020 45° Northeast  Level FlightAware Approximate
10:00AM 40.7219 -75.4703 45° Northeast  Level FlightAware Approximate
10:01AM 40.7458 -75.4386 45° Northeast  Level FlightAware Approximate
10:02AM 40.7698 -75.4068 45° Northeast  Level FlightAware Approximate
10:03AM 40.7938 -75.3750 45° Northeast  Level FlightAware Approximate
10:04AM 40.8178 -75.3432 45° Northeast  Level FlightAware Approximate
10:05AM 40.8418 -75.3114 45° Northeast  Level FlightAware Approximate
10:06AM 40.8657 -75.2795 45° Northeast  Level FlightAware Approximate
10:07AM 40.8897 -75.2477 45° Northeast  Level FlightAware Approximate
10:08AM 40.9097 -75.2114 42° Northeast  Level Estimated
10:09AM 40.9346 -75.1808 43° Northeast  Level FlightAware Approximate
10:10AM 40.9596 -75.1503 43° Northeast  Level FlightAware Approximate
10:10AM 41.2000 -74.8667 43° Northeast 186 214 5,100  Level New York TRACON
10:11AM 40.9845 -75.1197 43° Northeast  Level FlightAware Approximate
10:11AM 41.2333 -74.8333 37° Northeast 185 213 5,100  Level New York TRACON
10:12AM 41.0094 -75.0891 43° Northeast  Level FlightAware Approximate
10:12AM 41.2667 -74.7833 48° Northeast 198 228 4,600  Level New York TRACON
10:13AM 41.0343 -75.0585 43° Northeast  Level FlightAware Approximate
10:13AM 41.3000 -74.7333 48° Northeast 200 230 4,100  Level New York TRACON
10:14AM 41.0535 -75.0213 46° Northeast  Level Estimated
10:14AM 41.3500 -74.6833 37° Northeast 179 206 4,200  Level New York TRACON
10:15AM 41.0784 -74.9906 43° Northeast  Level FlightAware Approximate
10:15AM 41.3833 -74.6333 48° Northeast 178 205 4,100  Level New York TRACON
10:16AM 41.4167 -74.5833 48° Northeast 176 203 4,100  Level New York TRACON
10:17AM 41.4500 -74.5500 37° Northeast 180 207 4,100  Level New York TRACON
10:18AM 41.4833 -74.5000 48° Northeast 185 213 4,100  Level New York TRACON
10:19AM 41.5333 -74.4500 37° Northeast 185 213 4,100  Level New York TRACON
10:20AM 41.5667 -74.4167 37° Northeast 184 212 4,100  Level New York TRACON
10:21AM 41.6167 -74.3667 37° Northeast 188 216 4,100  Level New York TRACON
10:22AM 41.6500 -74.3167 48° Northeast 190 219 4,100  Level New York TRACON
10:23AM 41.6833 -74.2833 37° Northeast 188 216 4,100  Level New York TRACON
10:24AM 41.7333 -74.2333 37° Northeast 192 221 4,100  Level New York TRACON
10:25AM 41.7500 -74.1833 66° East 171 197 4,100  Level New York TRACON
10:26AM 41.7667 -74.1333 66° East 169 194 4,100  Level New York TRACON
10:27AM 41.7833 -74.0667 71° East 174 200 4,100  Level New York TRACON
10:28AM 41.8167 -74.0167 48° Northeast 171 197 4,100  Level New York TRACON
10:29AM 41.8333 -73.9500 71° East 168 193 4,100  Level New York TRACON
10:30AM 41.8333 -73.9000 90° East 156 180 4,100  Level New York TRACON
10:31AM 41.8500 -73.8500 66° East 138 159 4,100  Level New York TRACON
10:32AM 41.8333 -73.8000 114° Southeast 137 158 4,100  Level New York TRACON
10:33AM 41.8333 -73.7500 90° East 125 144 4,100 -300 Level New York TRACON
10:34AM 41.8167 -73.7167 124° Southeast 135 155 3,600 -540 Descending New York TRACON
10:35AM 41.8000 -73.6667 114° Southeast 151 174 3,100 -300 Descending New York TRACON
10:36AM 41.7667 -73.6667 180° South 118 136 3,100  Level New York TRACON
10:37AM 41.7500 -73.7000 236° Southwest 108 124 3,100  Level New York TRACON
10:38AM 41.7333 -73.7333 236° Southwest 114 131 3,100 -60 Level New York TRACON
10:39AM 41.7000 -73.7500 200° South 90 104 3,000 -420 Descending New York TRACON
10:40AM 41.6833 -73.7833 236° Southwest 95 109 2,300 -660 Descending New York TRACON
10:41AM 41.6667 -73.8000 217° Southwest 95 109 1,700 -600 Descending New York TRACON
10:42AM 41.6500 -73.8333 236° Southwest 94 108 1,200 -540 Descending New York TRACON
10:43AM 41.6333 -73.8667 236° Southwest 93 107 600 -600 Descending New York TRACON